首页
METAR-TAF:

METAR-TAF

机场 :

Benbecula, 苏格兰

纬度: 57-28N, 经度: 007-22W, 海拔: 6米

当前天气观测

该预报发布于10分钟前的02:20 UTC
风速11节,风向南转西南
温度 7°C
湿度 87%
气压 1009 hPa
能见度10公里或以上

METAR: EGPL 040220Z AUTO 21011KT 9999 FEW022/// SCT028/// OVC033/// 07/05 Q1009

时间: 03:30 (02:30 UTC)

预报

该预报发布于15小时和30分钟前的11:00 UTC
预报有效从03日的 12点(UTC)到 03日的 16点(UTC)
风速9节,风向西
能见度10公里或以上
散云层高于3000英尺
几率 30% :
短暂存在
从 03日的 12点(UTC)到 03日的 16点(UTC)
能見度: 5000
多云层高于1400英尺
阵雨

TAF: EGPL 031100Z 0312/0316 27009KT 9999 SCT030 PROB30 TEMPO 0312/0316 5000 SHRA BKN014

超过4000个机场的气象观测和天气预报(METAR&TAF报告)。

可查询的气象台以黄色和红色小点在地图上表示。

将鼠标移到小点上方,可查看气象台名称。

然后点击查看天气观测和预报。

如需切换地图:点击带黑十字的绿色按钮放大地图;点击带横线的绿色按钮缩小地图;或者点击绿色箭头查看邻近地区的地图。


METAR-TAF: